Time;durP1;ratioP1;P1;durP2;ratioP2;P2;SDS_P1;SDS_P2;PMS_P1;PMS_P2;Temp;Humidity;BMP_temperature;BMP_pressure;BME280_temperature;BME280_humidity;BME280_pressure;Samples;Min_cycle;Max_cycle;Signal;HPM_P1;HPM_P2
2023/06/30 00:01:28;;;;;;;10.30;9.10;;;21.30;1.00;;;;;;5029511;28;20435;-80
2023/06/30 00:03:55;;;;;;;10.83;8.50;;;20.90;1.00;;;;;;5027049;28;20295;-80
2023/06/30 00:06:20;;;;;;;12.43;8.87;;;20.90;1.00;;;;;;5029058;28;20459;-79
2023/06/30 00:08:48;;;;;;;9.70;8.70;;;20.90;1.00;;;;;;5020818;28;20454;-80
2023/06/30 00:11:14;;;;;;;12.13;9.17;;;20.90;1.00;;;;;;5028101;28;20292;-80
2023/06/30 00:13:39;;;;;;;15.17;9.00;;;20.80;1.00;;;;;;5033176;28;20438;-81
2023/06/30 00:16:05;;;;;;;10.40;9.30;;;20.80;1.00;;;;;;5019789;28;20448;-81
2023/06/30 00:18:30;;;;;;;10.50;9.27;;;20.80;1.00;;;;;;5029001;28;20478;-82
2023/06/30 00:20:57;;;;;;;12.20;9.03;;;20.80;1.00;;;;;;5030465;28;20200;-80
2023/06/30 00:23:27;;;;;;;11.30;9.63;;;20.70;1.00;;;;;;5030070;28;20643;-79
2023/06/30 00:25:53;;;;;;;11.97;9.53;;;20.60;1.00;;;;;;5029317;28;20420;-80
2023/06/30 00:28:18;;;;;;;10.70;9.37;;;20.60;1.00;;;;;;5029926;28;20933;-80
2023/06/30 00:30:44;;;;;;;10.23;9.23;;;20.70;1.00;;;;;;5026784;28;20273;-79
2023/06/30 00:33:09;;;;;;;11.13;9.40;;;20.70;1.00;;;;;;5029499;28;20287;-80
2023/06/30 00:35:35;;;;;;;10.00;8.93;;;20.70;1.00;;;;;;5026533;28;20189;-79
2023/06/30 00:38:01;;;;;;;33.23;10.20;;;20.70;1.00;;;;;;5028839;28;20229;-80
2023/06/30 00:40:26;;;;;;;10.47;9.10;;;20.60;1.00;;;;;;5029557;28;20251;-80
2023/06/30 00:42:52;;;;;;;11.30;9.00;;;20.60;1.00;;;;;;5028767;28;20182;-79
2023/06/30 00:45:17;;;;;;;12.27;9.10;;;20.50;1.00;;;;;;5029118;28;20189;-79
2023/06/30 00:47:43;;;;;;;11.20;9.03;;;20.60;1.00;;;;;;5029656;28;20709;-80
2023/06/30 00:50:09;;;;;;;14.17;9.27;;;20.60;1.00;;;;;;5029115;28;20558;-79
2023/06/30 00:52:35;;;;;;;9.73;8.73;;;20.50;1.00;;;;;;5027553;28;20679;-80
2023/06/30 00:55:01;;;;;;;10.27;9.03;;;20.50;1.00;;;;;;5025279;28;20216;-80
2023/06/30 00:57:26;;;;;;;17.20;9.50;;;20.60;1.00;;;;;;5028856;28;20475;-79
2023/06/30 00:59:52;;;;;;;15.93;10.00;;;20.50;1.00;;;;;;5027225;28;20698;-80
2023/06/30 01:02:27;;;;;;;16.03;9.13;;;20.50;1.00;;;;;;5028775;28;20217;-80
2023/06/30 01:05:00;;;;;;;11.57;9.40;;;20.40;1.00;;;;;;5029586;28;20196;-80
2023/06/30 01:07:37;;;;;;;14.77;9.70;;;20.30;1.00;;;;;;5027595;28;20862;-80
2023/06/30 01:10:14;;;;;;;14.30;9.50;;;20.30;1.00;;;;;;5028117;28;20435;-80
2023/06/30 01:12:40;;;;;;;13.07;8.97;;;20.30;1.00;;;;;;5023530;28;20588;-79
2023/06/30 01:15:07;;;;;;;14.63;9.17;;;20.40;1.00;;;;;;5027907;28;20444;-81
2023/06/30 01:17:34;;;;;;;9.73;8.60;;;20.40;1.00;;;;;;5028028;28;20463;-80
2023/06/30 01:20:00;;;;;;;16.77;9.30;;;20.50;1.00;;;;;;5026526;28;20499;-79
2023/06/30 01:22:30;;;;;;;14.43;9.30;;;20.60;1.00;;;;;;5028233;28;20423;-80
2023/06/30 01:25:03;;;;;;;9.93;8.60;;;20.60;1.00;;;;;;5027815;28;20899;-80
2023/06/30 01:27:29;;;;;;;10.50;8.47;;;20.60;1.00;;;;;;5032233;28;20439;-80
2023/06/30 01:29:55;;;;;;;13.47;8.23;;;20.70;1.00;;;;;;5029066;28;20416;-80
2023/06/30 01:32:21;;;;;;;13.40;8.37;;;20.70;1.00;;;;;;5028313;28;20419;-80
2023/06/30 01:34:47;;;;;;;11.03;8.63;;;20.70;1.00;;;;;;5027687;28;20220;-80
2023/06/30 01:37:14;;;;;;;13.73;8.03;;;20.80;1.00;;;;;;5028251;28;20490;-78
2023/06/30 01:39:42;;;;;;;11.20;8.90;;;20.90;1.00;;;;;;5026177;28;20513;-79
2023/06/30 01:42:09;;;;;;;13.63;7.90;;;20.90;1.00;;;;;;5025296;28;20489;-80
2023/06/30 01:44:36;;;;;;;10.60;8.27;;;21.10;1.00;;;;;;5028179;28;20582;-80
2023/06/30 01:47:02;;;;;;;11.70;8.50;;;21.10;1.00;;;;;;5027577;28;20838;-80
2023/06/30 01:49:28;;;;;;;9.57;7.40;;;21.20;1.00;;;;;;5029000;28;20432;-80
2023/06/30 01:51:54;;;;;;;9.80;7.90;;;21.20;1.00;;;;;;5028792;28;20419;-80
2023/06/30 01:54:19;;;;;;;14.50;7.70;;;21.20;1.00;;;;;;5027339;28;20280;-80
2023/06/30 01:56:49;;;;;;;8.83;7.30;;;21.20;1.00;;;;;;5028221;28;20213;-79
2023/06/30 01:59:14;;;;;;;9.50;8.27;;;21.20;1.00;;;;;;5027560;28;20278;-79
2023/06/30 02:01:40;;;;;;;10.77;8.70;;;21.20;1.00;;;;;;5026856;28;20491;-80
2023/06/30 02:04:05;;;;;;;10.00;8.23;;;21.20;1.00;;;;;;5028269;28;20690;-79
2023/06/30 02:06:31;;;;;;;11.03;8.80;;;21.20;1.00;;;;;;5028256;28;20205;-79
2023/06/30 02:08:56;;;;;;;10.30;8.17;;;21.10;1.00;;;;;;5028764;28;20236;-80
2023/06/30 02:11:22;;;;;;;12.90;8.70;;;21.10;1.00;;;;;;5028475;28;20208;-79
2023/06/30 02:13:47;;;;;;;11.83;7.80;;;21.10;1.00;;;;;;5029038;28;20200;-80
2023/06/30 02:16:13;;;;;;;20.07;8.27;;;21.10;1.00;;;;;;5027559;28;20201;-79
2023/06/30 02:18:39;;;;;;;9.90;8.17;;;21.10;1.00;;;;;;5028509;28;20554;-79
2023/06/30 02:21:05;;;;;;;14.90;8.33;;;21.10;1.00;;;;;;5028513;28;20181;-79
2023/06/30 02:23:31;;;;;;;12.67;8.70;;;21.10;1.00;;;;;;5027343;28;20517;-79
2023/06/30 02:25:57;;;;;;;9.03;8.13;;;21.10;1.00;;;;;;5027196;28;20543;-79
2023/06/30 02:28:22;;;;;;;11.03;8.23;;;21.10;1.00;;;;;;5025633;28;20547;-79
2023/06/30 02:30:48;;;;;;;13.33;9.20;;;21.20;1.00;;;;;;5027318;28;20435;-79
2023/06/30 02:33:14;;;;;;;10.47;8.63;;;21.20;1.00;;;;;;5022655;28;20181;-80
2023/06/30 02:35:39;;;;;;;10.73;8.30;;;21.20;1.00;;;;;;5030395;28;20188;-79
2023/06/30 02:38:06;;;;;;;11.40;8.30;;;21.20;1.00;;;;;;5030373;28;20197;-80
2023/06/30 02:40:31;;;;;;;10.87;8.90;;;21.10;1.00;;;;;;5031188;28;20259;-79
2023/06/30 02:42:57;;;;;;;11.07;9.00;;;21.10;1.00;;;;;;5029813;28;20439;-79
2023/06/30 02:45:22;;;;;;;11.97;8.70;;;21.10;1.00;;;;;;5030339;28;20193;-80
2023/06/30 02:47:48;;;;;;;10.93;8.60;;;21.10;1.00;;;;;;5029824;28;20291;-80
2023/06/30 02:50:13;;;;;;;10.60;9.47;;;21.10;1.00;;;;;;5029722;28;20187;-79
2023/06/30 02:52:39;;;;;;;13.70;9.37;;;21.00;1.00;;;;;;5029357;28;20652;-79
2023/06/30 02:55:04;;;;;;;9.67;8.60;;;21.00;1.00;;;;;;5029413;28;20235;-80
2023/06/30 02:57:30;;;;;;;10.67;8.97;;;21.00;1.00;;;;;;5029806;28;20292;-79
2023/06/30 02:59:55;;;;;;;12.30;9.10;;;21.10;1.00;;;;;;5029115;28;20590;-79
2023/06/30 03:02:21;;;;;;;11.50;9.10;;;21.10;1.00;;;;;;5029939;28;20223;-80
2023/06/30 03:04:46;;;;;;;10.40;8.90;;;21.10;1.00;;;;;;5031205;28;20770;-78
2023/06/30 03:07:12;;;;;;;9.83;8.50;;;21.10;1.00;;;;;;5027767;28;20288;-79
2023/06/30 03:09:38;;;;;;;10.90;8.27;;;21.10;1.00;;;;;;5028932;28;20219;-79
2023/06/30 03:12:04;;;;;;;11.53;8.20;;;21.00;1.00;;;;;;5030088;28;20234;-80
2023/06/30 03:14:29;;;;;;;10.97;8.43;;;20.60;1.00;;;;;;5027371;28;20212;-80
2023/06/30 03:16:55;;;;;;;9.20;8.30;;;21.10;1.00;;;;;;5028685;28;20520;-80
2023/06/30 03:19:20;;;;;;;11.33;8.30;;;21.20;1.00;;;;;;5026910;28;20286;-79
2023/06/30 03:21:46;;;;;;;10.50;8.13;;;21.20;1.00;;;;;;5029049;28;20193;-79
2023/06/30 03:24:12;;;;;;;10.53;8.80;;;21.20;1.00;;;;;;5024763;28;20683;-79
2023/06/30 03:26:38;;;;;;;9.57;7.87;;;21.10;1.00;;;;;;5030090;28;20459;-80
2023/06/30 03:29:03;;;;;;;9.50;8.50;;;21.00;1.00;;;;;;5029215;28;20237;-79
2023/06/30 03:31:29;;;;;;;11.70;8.90;;;21.00;1.00;;;;;;5027059;28;20184;-80
2023/06/30 03:33:54;;;;;;;9.90;8.90;;;20.90;1.00;;;;;;5028248;28;20178;-80
2023/06/30 03:36:20;;;;;;;25.23;10.40;;;20.90;1.00;;;;;;5028936;28;20205;-79
2023/06/30 03:38:45;;;;;;;14.50;10.23;;;20.80;1.00;;;;;;5030070;28;20189;-79
2023/06/30 03:41:11;;;;;;;11.23;9.57;;;20.80;1.00;;;;;;5027834;28;20204;-79
2023/06/30 03:43:36;;;;;;;16.60;10.90;;;20.70;1.00;;;;;;5028289;28;20185;-80
2023/06/30 03:46:02;;;;;;;15.50;10.40;;;20.70;1.00;;;;;;5029037;28;20201;-79
2023/06/30 03:48:27;;;;;;;12.33;9.47;;;20.60;1.00;;;;;;5029494;28;20380;-79
2023/06/30 03:50:53;;;;;;;14.07;9.60;;;20.60;1.00;;;;;;5027557;28;20191;-79
2023/06/30 03:53:19;;;;;;;12.73;9.67;;;20.50;1.00;;;;;;5027714;28;20464;-79
2023/06/30 03:55:44;;;;;;;14.67;10.03;;;20.30;1.00;;;;;;5028611;28;20182;-77
2023/06/30 03:58:10;;;;;;;15.90;10.27;;;20.30;1.00;;;;;;5029358;28;20224;-79
2023/06/30 04:00:36;;;;;;;16.80;11.07;;;20.30;1.00;;;;;;5028124;28;20210;-79
2023/06/30 04:03:01;;;;;;;13.53;10.53;;;20.20;1.00;;;;;;5029699;28;20173;-79
2023/06/30 04:05:27;;;;;;;12.07;10.77;;;20.30;1.00;;;;;;5029357;28;20190;-80
2023/06/30 04:07:52;;;;;;;12.30;11.00;;;20.30;1.00;;;;;;5028192;28;20255;-79
2023/06/30 04:10:18;;;;;;;15.53;11.50;;;20.20;1.00;;;;;;5028385;28;20196;-80
2023/06/30 04:12:43;;;;;;;16.00;12.10;;;20.30;1.00;;;;;;5029473;28;20552;-79
2023/06/30 04:15:10;;;;;;;15.07;12.07;;;20.40;1.00;;;;;;5028809;28;20177;-79
2023/06/30 04:17:37;;;;;;;19.10;12.43;;;20.50;1.00;;;;;;5029118;28;20216;-78
2023/06/30 04:20:06;;;;;;;17.70;12.13;;;20.60;1.00;;;;;;5029302;28;20467;-80
2023/06/30 04:22:32;;;;;;;17.50;12.23;;;20.60;1.00;;;;;;5028594;28;20443;-79
2023/06/30 04:24:58;;;;;;;17.63;12.53;;;20.70;1.00;;;;;;5026661;28;20440;-80
2023/06/30 04:27:23;;;;;;;20.60;12.80;;;20.80;1.00;;;;;;5028505;28;20220;-79
2023/06/30 04:29:49;;;;;;;15.87;12.40;;;20.80;1.00;;;;;;5028902;28;20216;-81
2023/06/30 04:32:14;;;;;;;20.53;13.00;;;21.00;1.00;;;;;;5025711;28;20185;-80
2023/06/30 04:34:40;;;;;;;24.87;12.90;;;21.10;1.00;;;;;;5027524;28;20204;-80
2023/06/30 04:37:05;;;;;;;18.40;13.30;;;21.10;1.00;;;;;;5027757;28;20205;-80
2023/06/30 04:39:31;;;;;;;16.67;13.57;;;21.20;1.00;;;;;;5026748;28;20213;-79
2023/06/30 04:41:56;;;;;;;19.50;13.37;;;21.30;1.00;;;;;;5027939;28;20185;-79
2023/06/30 04:44:22;;;;;;;19.20;12.50;;;21.30;1.00;;;;;;5026773;28;20216;-80
2023/06/30 04:46:47;;;;;;;15.17;12.77;;;21.40;1.00;;;;;;5025213;28;20212;-80
2023/06/30 04:49:13;;;;;;;17.43;12.30;;;21.40;1.00;;;;;;5026060;28;20628;-80
2023/06/30 04:51:38;;;;;;;19.50;11.63;;;21.50;1.00;;;;;;5028482;28;20188;-80
2023/06/30 04:54:04;;;;;;;13.80;11.77;;;21.60;1.00;;;;;;5026010;28;20359;-79
2023/06/30 04:56:29;;;;;;;17.13;11.37;;;21.70;1.00;;;;;;5026433;28;20212;-79
2023/06/30 04:58:55;;;;;;;14.93;10.40;;;21.80;1.00;;;;;;5030309;28;20208;-80
2023/06/30 05:01:20;;;;;;;14.43;10.60;;;21.80;1.00;;;;;;5023843;28;20181;-81
2023/06/30 05:03:46;;;;;;;17.10;11.60;;;21.90;1.00;;;;;;5025597;28;20185;-79
2023/06/30 05:06:11;;;;;;;15.00;10.80;;;21.90;1.00;;;;;;5024278;28;20236;-81
2023/06/30 05:08:36;;;;;;;15.73;11.40;;;22.00;1.00;;;;;;5028296;28;20184;-80
2023/06/30 05:11:02;;;;;;;14.47;10.70;;;22.00;1.00;;;;;;5025690;28;20177;-79
2023/06/30 05:13:27;;;;;;;15.60;11.30;;;22.10;1.00;;;;;;5024910;28;20193;-80
2023/06/30 05:15:53;;;;;;;12.80;10.47;;;22.30;1.00;;;;;;5027024;28;20192;-80
2023/06/30 05:18:19;;;;;;;13.13;11.07;;;22.30;1.00;;;;;;5027004;28;20189;-79
2023/06/30 05:20:44;;;;;;;14.17;10.60;;;22.30;1.00;;;;;;5027490;28;20200;-80
2023/06/30 05:23:09;;;;;;;15.60;10.93;;;22.30;1.00;;;;;;5032679;28;20656;-80
2023/06/30 05:25:35;;;;;;;13.77;10.37;;;22.30;1.00;;;;;;5027194;28;20234;-79
2023/06/30 05:28:01;;;;;;;18.20;10.60;;;22.30;1.00;;;;;;5028437;28;20223;-79
2023/06/30 05:30:26;;;;;;;15.60;10.37;;;22.40;1.00;;;;;;5030097;28;20283;-79
2023/06/30 05:32:52;;;;;;;15.43;10.93;;;22.40;1.00;;;;;;5020908;28;20173;-81
2023/06/30 05:35:17;;;;;;;16.80;10.03;;;22.50;1.00;;;;;;5026825;28;20189;-80
2023/06/30 05:37:43;;;;;;;14.30;10.20;;;22.50;1.00;;;;;;5025447;28;20216;-80
2023/06/30 05:40:08;;;;;;;14.93;10.20;;;22.60;1.00;;;;;;5025582;28;20616;-80
2023/06/30 05:42:34;;;;;;;20.00;11.43;;;22.70;1.00;;;;;;5024285;28;20174;-78
2023/06/30 05:45:00;;;;;;;14.03;10.27;;;22.60;1.00;;;;;;5051961;22;20487;-73
2023/06/30 05:47:25;;;;;;;16.20;10.73;;;22.60;1.00;;;;;;5028410;28;20216;-75
2023/06/30 05:49:51;;;;;;;18.70;11.23;;;22.50;1.00;;;;;;5031265;28;20583;-77
2023/06/30 05:52:16;;;;;;;19.27;11.50;;;22.40;1.00;;;;;;5026139;28;20185;-74
2023/06/30 05:54:42;;;;;;;15.23;11.67;;;22.40;1.00;;;;;;5029234;28;20644;-75
2023/06/30 05:57:07;;;;;;;24.23;13.10;;;22.20;1.00;;;;;;5029315;28;20230;-75
2023/06/30 05:59:33;;;;;;;18.60;12.97;;;22.10;1.00;;;;;;5028975;28;20232;-75
2023/06/30 06:01:58;;;;;;;18.97;12.00;;;22.00;1.00;;;;;;5028628;28;20232;-75
2023/06/30 06:04:24;;;;;;;20.80;11.83;;;22.00;1.00;;;;;;5028171;28;20246;-74
2023/06/30 06:06:49;;;;;;;18.43;12.17;;;22.10;1.00;;;;;;5028706;28;20184;-77
2023/06/30 06:09:15;;;;;;;19.13;12.70;;;22.10;1.00;;;;;;5035700;28;20239;-73
2023/06/30 06:11:41;;;;;;;21.60;12.13;;;22.10;1.00;;;;;;5032448;28;20669;-74
2023/06/30 06:14:06;;;;;;;17.40;12.80;;;22.10;1.00;;;;;;5036014;28;20610;-75
2023/06/30 06:16:32;;;;;;;24.33;14.27;;;22.20;1.00;;;;;;5035835;28;20184;-74
2023/06/30 06:18:58;;;;;;;19.17;13.90;;;22.30;1.00;;;;;;5035213;28;20193;-75
2023/06/30 06:21:27;;;;;;;18.43;12.33;;;22.50;1.00;;;;;;5035835;28;20647;-75
2023/06/30 06:23:56;;;;;;;18.43;13.73;;;22.80;1.00;;;;;;5036105;28;20447;-74
2023/06/30 06:26:22;;;;;;;19.03;13.97;;;23.00;1.00;;;;;;5035569;28;20906;-74
2023/06/30 06:28:48;;;;;;;18.20;12.57;;;23.30;1.00;;;;;;5034687;28;20424;-74
2023/06/30 06:31:13;;;;;;;19.37;13.90;;;23.50;1.00;;;;;;5034717;28;20177;-75
2023/06/30 06:33:39;;;;;;;22.60;13.27;;;23.60;1.00;;;;;;5035404;28;20542;-75
2023/06/30 06:36:04;;;;;;;21.50;14.97;;;23.30;1.00;;;;;;5035707;28;20177;-74
2023/06/30 06:38:30;;;;;;;19.73;13.60;;;23.20;1.00;;;;;;5038898;28;20582;-74
2023/06/30 06:40:55;;;;;;;22.00;13.70;;;23.20;1.00;;;;;;5035863;28;20570;-75
2023/06/30 06:43:26;;;;;;;21.63;14.23;;;23.40;1.00;;;;;;5034737;28;20185;-74
2023/06/30 06:45:51;;;;;;;21.93;15.50;;;23.40;1.00;;;;;;5029463;28;20285;-72
2023/06/30 06:48:28;;;;;;;22.30;13.33;;;23.70;1.00;;;;;;5032645;28;20474;-72
2023/06/30 06:50:57;;;;;;;19.43;13.73;;;24.00;1.00;;;;;;5032364;28;20545;-73
2023/06/30 06:53:26;;;;;;;20.40;13.50;;;24.20;1.00;;;;;;5034338;28;20881;-70
2023/06/30 06:55:53;;;;;;;21.33;14.27;;;24.20;1.00;;;;;;5034374;28;20460;-72
2023/06/30 06:58:20;;;;;;;17.90;12.50;;;24.20;1.00;;;;;;5032671;28;20501;-75
2023/06/30 07:00:50;;;;;;;25.13;15.10;;;24.20;1.00;;;;;;5034308;28;21065;-71
2023/06/30 07:03:16;;;;;;;21.13;12.93;;;23.80;1.00;;;;;;5032938;28;20507;-71
2023/06/30 07:05:44;;;;;;;22.83;14.00;;;23.80;1.00;;;;;;5031350;28;20869;-73
2023/06/30 07:08:10;;;;;;;19.30;12.80;;;23.70;1.00;;;;;;5035167;28;20423;-71
2023/06/30 07:10:36;;;;;;;18.17;13.60;;;23.70;1.00;;;;;;5034988;28;20479;-72
2023/06/30 07:13:03;;;;;;;17.60;12.23;;;23.70;1.00;;;;;;5030958;28;20451;-72
2023/06/30 07:15:28;;;;;;;19.17;13.20;;;23.60;1.00;;;;;;5029871;28;20212;-71
2023/06/30 07:17:55;;;;;;;18.03;13.27;;;23.70;1.00;;;;;;5031856;28;20439;-72
2023/06/30 07:20:21;;;;;;;15.20;12.50;;;23.80;1.00;;;;;;5030291;28;20219;-72
2023/06/30 07:22:47;;;;;;;18.40;13.37;;;23.90;1.00;;;;;;5030247;28;20942;-75
2023/06/30 07:25:13;;;;;;;19.40;13.67;;;23.90;1.00;;;;;;5028914;28;20208;-74
2023/06/30 07:27:38;;;;;;;19.60;14.63;;;24.00;1.00;;;;;;5028123;28;20648;-72
2023/06/30 07:30:05;;;;;;;20.40;15.07;;;24.00;1.00;;;;;;5031048;28;20177;-72
2023/06/30 07:32:33;;;;;;;21.03;13.80;;;24.00;1.00;;;;;;5026997;28;20276;-71
2023/06/30 07:34:59;;;;;;;22.83;14.80;;;24.00;1.00;;;;;;5030774;28;20468;-72
2023/06/30 07:37:25;;;;;;;20.03;13.90;;;24.20;1.00;;;;;;5029943;28;20505;-71
2023/06/30 07:39:50;;;;;;;16.97;13.60;;;24.30;1.00;;;;;;5029893;28;20562;-71
2023/06/30 07:42:16;;;;;;;23.30;13.70;;;24.40;1.00;;;;;;5023847;28;20186;-75
2023/06/30 07:44:41;;;;;;;20.63;14.90;;;24.40;1.00;;;;;;5028849;28;20221;-71
2023/06/30 07:47:07;;;;;;;19.43;14.10;;;24.30;1.00;;;;;;5027986;28;20232;-71
2023/06/30 07:49:32;;;;;;;17.77;13.63;;;24.30;1.00;;;;;;5028711;28;20190;-73
2023/06/30 07:51:58;;;;;;;20.00;13.00;;;24.30;1.00;;;;;;5028545;28;20196;-71
2023/06/30 07:54:23;;;;;;;20.00;13.10;;;24.40;1.00;;;;;;5028642;28;20201;-72
2023/06/30 07:56:49;;;;;;;17.10;13.20;;;24.50;1.00;;;;;;5028066;28;20543;-72
2023/06/30 07:59:14;;;;;;;19.23;13.30;;;24.60;1.00;;;;;;5029954;28;20204;-75
2023/06/30 08:01:40;;;;;;;18.40;14.30;;;24.70;1.00;;;;;;5027820;28;20267;-72
2023/06/30 08:04:06;;;;;;;21.30;15.37;;;;;;;;;;5043640;28;20201;-72
2023/06/30 08:06:31;;;;;;;21.40;14.57;;;25.10;1.00;;;;;;5027848;28;20185;-73
2023/06/30 08:08:57;;;;;;;20.93;15.30;;;25.10;1.00;;;;;;5028297;28;20181;-73
2023/06/30 08:11:22;;;;;;;22.03;16.30;;;25.10;1.00;;;;;;5027670;28;20559;-75
2023/06/30 08:13:48;;;;;;;20.23;14.77;;;25.20;1.00;;;;;;5028457;28;20197;-76
2023/06/30 08:16:15;;;;;;;18.90;14.43;;;25.20;1.00;;;;;;5029060;28;20396;-73
2023/06/30 08:18:40;;;;;;;24.63;15.23;;;25.60;1.00;;;;;;5027284;28;20177;-72
2023/06/30 08:21:06;;;;;;;21.70;15.83;;;25.60;1.00;;;;;;5025322;28;20483;-78
2023/06/30 08:23:31;;;;;;;21.90;15.40;;;25.70;1.00;;;;;;5041677;28;20177;-75
2023/06/30 08:25:57;;;;;;;24.37;17.67;;;25.80;1.00;;;;;;5028987;28;20239;-73
2023/06/30 08:28:22;;;;;;;25.30;17.93;;;26.10;1.00;;;;;;5027938;28;20235;-75
2023/06/30 08:30:49;;;;;;;28.70;18.00;;;26.40;1.00;;;;;;5028696;28;20653;-75
2023/06/30 08:33:14;;;;;;;25.33;17.80;;;26.60;1.00;;;;;;5026373;28;20185;-74
2023/06/30 08:35:40;;;;;;;26.00;19.10;;;27.00;1.00;;;;;;5027356;28;20455;-72
2023/06/30 08:38:05;;;;;;;32.70;20.80;;;27.00;1.00;;;;;;5029667;28;20177;-73
2023/06/30 08:40:31;;;;;;;25.90;19.00;;;26.40;1.00;;;;;;5027210;28;20220;-74
2023/06/30 08:43:07;;;;;;;26.57;19.63;;;25.70;1.00;;;;;;5026904;28;20181;-72
2023/06/30 08:45:33;;;;;;;27.27;18.93;;;25.10;1.00;;;;;;5023958;28;20551;-73
2023/06/30 08:48:04;;;;;;;28.33;19.57;;;24.90;1.00;;;;;;5027950;28;20478;-77
2023/06/30 08:50:34;;;;;;;30.77;19.53;;;25.00;1.00;;;;;;5025360;28;20178;-73
2023/06/30 08:53:01;;;;;;;35.20;21.70;;;25.20;1.00;;;;;;5019913;28;20508;-76
2023/06/30 08:55:27;;;;;;;30.20;19.97;;;25.00;1.00;;;;;;5027400;28;20775;-73
2023/06/30 08:57:56;;;;;;;30.53;20.90;;;24.80;1.00;;;;;;5022821;28;20483;-72
2023/06/30 09:00:23;;;;;;;30.90;22.27;;;24.70;1.00;;;;;;5026893;28;20209;-75
2023/06/30 09:02:49;;;;;;;32.63;22.20;;;24.50;1.00;;;;;;5025695;28;20674;-73
2023/06/30 09:05:15;;;;;;;36.67;22.07;;;24.40;1.00;;;;;;5027178;28;20517;-73
2023/06/30 09:07:46;;;;;;;32.00;22.00;;;24.40;1.00;;;;;;5022758;28;20246;-74
2023/06/30 09:10:12;;;;;;;34.37;22.33;;;24.40;1.00;;;;;;5024025;28;20461;-74
2023/06/30 09:12:40;;;;;;;35.37;23.47;;;24.40;1.00;;;;;;5027547;28;20659;-75
2023/06/30 09:15:08;;;;;;;35.17;24.10;;;24.40;1.00;;;;;;5024966;28;20521;-75
2023/06/30 09:17:34;;;;;;;41.60;27.60;;;24.10;1.00;;;;;;5024658;28;20877;-74
2023/06/30 09:19:59;;;;;;;48.00;28.67;;;23.90;1.00;;;;;;5027894;28;20471;-75
2023/06/30 09:22:25;;;;;;;44.47;27.77;;;23.70;1.00;;;;;;5028088;28;20189;-72
2023/06/30 09:24:51;;;;;;;44.13;27.13;;;23.60;1.00;;;;;;5022159;28;20365;-74
2023/06/30 09:27:20;;;;;;;42.37;25.57;;;23.60;1.00;;;;;;5023525;28;20975;-72
2023/06/30 09:29:53;;;;;;;28.43;18.60;;;23.60;1.00;;;;;;5026542;28;20269;-72
2023/06/30 09:32:27;;;;;;;23.10;16.13;;;23.60;1.00;;;;;;5024965;28;20442;-72
2023/06/30 09:34:54;;;;;;;21.00;15.00;;;23.40;1.00;;;;;;5028039;28;20464;-72
2023/06/30 09:37:20;;;;;;;22.43;13.30;;;23.70;1.00;;;;;;5027659;28;20573;-72
2023/06/30 09:39:50;;;;;;;17.17;12.43;;;23.80;1.00;;;;;;5025680;28;20472;-73
2023/06/30 09:42:16;;;;;;;16.03;12.40;;;24.00;1.00;;;;;;5025038;28;20440;-72
2023/06/30 09:44:41;;;;;;;17.67;13.47;;;24.40;1.00;;;;;;5027888;28;20514;-71
2023/06/30 09:47:07;;;;;;;15.83;12.50;;;24.30;1.00;;;;;;5026962;28;20181;-74
2023/06/30 09:49:33;;;;;;;18.17;13.70;;;24.60;1.00;;;;;;5026237;28;20579;-72
2023/06/30 09:52:01;;;;;;;17.40;13.17;;;24.80;1.00;;;;;;5024964;28;20177;-71
2023/06/30 09:54:27;;;;;;;19.17;14.40;;;24.80;1.00;;;;;;5026592;28;20196;-72
2023/06/30 09:57:00;;;;;;;24.83;15.80;;;24.70;1.00;;;;;;5027925;28;20538;-73
2023/06/30 09:59:26;;;;;;;16.17;11.93;;;24.80;1.00;;;;;;5026988;28;20283;-73
2023/06/30 10:01:53;;;;;;;15.87;11.17;;;24.50;1.00;;;;;;5020439;28;20436;-74
2023/06/30 10:04:19;;;;;;;14.13;9.90;;;24.30;1.00;;;;;;5027230;28;20467;-73
2023/06/30 10:06:47;;;;;;;13.40;9.53;;;24.20;1.00;;;;;;5026648;28;20431;-74
2023/06/30 10:09:15;;;;;;;14.10;8.77;;;24.20;1.00;;;;;;5027925;28;20280;-75
2023/06/30 10:11:42;;;;;;;11.03;8.07;;;24.20;1.00;;;;;;5025908;28;20534;-74
2023/06/30 10:14:10;;;;;;;15.43;9.17;;;24.40;1.00;;;;;;5020277;28;20459;-74
2023/06/30 10:16:36;;;;;;;11.90;7.97;;;24.70;1.00;;;;;;5025201;28;20535;-73
2023/06/30 10:19:05;;;;;;;11.70;8.30;;;25.00;1.00;;;;;;5027733;28;20447;-73
2023/06/30 10:21:30;;;;;;;11.80;7.70;;;25.30;1.00;;;;;;5025125;28;20434;-75
2023/06/30 10:23:57;;;;;;;11.27;7.50;;;25.90;1.00;;;;;;5025363;28;20448;-73
2023/06/30 10:26:24;;;;;;;11.67;8.20;;;26.30;1.00;;;;;;5023719;28;20699;-75
2023/06/30 10:28:50;;;;;;;14.00;8.17;;;27.10;1.00;;;;;;5025734;28;20772;-75
2023/06/30 10:31:16;;;;;;;26.93;16.80;;;27.20;1.00;;;;;;5024734;28;20435;-75
2023/06/30 10:33:42;;;;;;;25.63;13.47;;;26.90;1.00;;;;;;5025226;28;20575;-76
2023/06/30 10:36:08;;;;;;;19.50;11.20;;;26.90;1.00;;;;;;5023247;28;20211;-77
2023/06/30 10:38:35;;;;;;;21.80;13.53;;;26.80;1.00;;;;;;5022847;28;20237;-77
2023/06/30 10:41:16;;;;;;;20.70;11.03;;;27.00;1.00;;;;;;5026382;28;20517;-74
2023/06/30 10:44:06;;;;;;;27.57;17.20;;;27.30;1.00;;;;;;5024348;28;20209;-74
2023/06/30 10:46:45;;;;;;;19.70;10.60;;;27.60;1.00;;;;;;5024938;28;20552;-75
2023/06/30 10:49:32;;;;;;;11.30;7.93;;;27.40;1.00;;;;;;5025193;28;20181;-74
2023/06/30 10:52:00;;;;;;;16.83;11.00;;;27.10;1.00;;;;;;5025473;28;20181;-77
2023/06/30 10:54:30;;;;;;;15.13;8.23;;;25.90;1.00;;;;;;5026816;28;20205;-74
2023/06/30 10:57:13;;;;;;;16.63;10.20;;;26.30;1.00;;;;;;5045331;28;20185;-77
2023/06/30 10:59:44;;;;;;;10.47;7.17;;;26.20;1.00;;;;;;5028297;28;21052;-74
2023/06/30 11:02:19;;;;;;;9.43;6.70;;;26.10;1.00;;;;;;5042753;28;20538;-74
2023/06/30 11:04:46;;;;;;;9.27;7.00;;;25.70;1.00;;;;;;5029716;28;20548;-74
2023/06/30 11:07:26;;;;;;;10.03;6.70;;;25.50;1.00;;;;;;5029610;28;20443;-72
2023/06/30 11:09:51;;;;;;;9.60;7.03;;;25.20;1.00;;;;;;5028614;28;21835;-74
2023/06/30 11:12:23;;;;;;;9.73;7.27;;;25.20;1.00;;;;;;5030536;28;20436;-75
2023/06/30 11:14:58;;;;;;;11.00;7.30;;;25.10;1.00;;;;;;5023811;28;20212;-74
2023/06/30 11:17:26;;;;;;;10.53;7.27;;;25.00;1.00;;;;;;5029656;28;20474;-73
2023/06/30 11:20:10;;;;;;;11.07;7.20;;;24.90;1.00;;;;;;5027707;28;20466;-75
2023/06/30 11:22:35;;;;;;;11.40;7.77;;;24.80;1.00;;;;;;5028331;28;20534;-72
2023/06/30 11:25:08;;;;;;;12.73;7.90;;;24.70;1.00;;;;;;5028135;28;20535;-76
2023/06/30 11:27:34;;;;;;;9.70;7.70;;;24.50;1.00;;;;;;5030103;28;20272;-72
2023/06/30 11:30:00;;;;;;;8.73;6.80;;;24.40;1.00;;;;;;5029381;28;20530;-72
2023/06/30 11:32:32;;;;;;;11.97;8.30;;;24.30;1.00;;;;;;5026323;28;20694;-73
2023/06/30 11:35:01;;;;;;;19.60;9.17;;;24.20;1.00;;;;;;5028925;28;20213;-72
2023/06/30 11:37:27;;;;;;;11.30;8.13;;;23.90;1.00;;;;;;5028167;28;20573;-72
2023/06/30 11:39:55;;;;;;;13.87;8.70;;;23.70;1.00;;;;;;5022941;28;21855;-74
2023/06/30 11:42:21;;;;;;;12.40;7.80;;;23.70;1.00;;;;;;5025904;28;20889;-73
2023/06/30 11:44:50;;;;;;;12.07;7.40;;;23.90;1.00;;;;;;5027338;28;20520;-74
2023/06/30 11:47:19;;;;;;;10.73;7.40;;;24.10;1.00;;;;;;5028092;28;20174;-74
2023/06/30 11:49:46;;;;;;;12.00;8.20;;;24.40;1.00;;;;;;5020809;28;20438;-74
2023/06/30 11:52:13;;;;;;;11.63;8.73;;;24.70;1.00;;;;;;5019968;28;20440;-73
2023/06/30 11:54:40;;;;;;;14.53;8.43;;;24.70;1.00;;;;;;5023821;28;20521;-76
2023/06/30 11:57:05;;;;;;;12.63;8.30;;;24.60;1.00;;;;;;5028174;28;20601;-75
2023/06/30 11:59:32;;;;;;;11.80;8.47;;;24.60;1.00;;;;;;5029218;28;20550;-73
2023/06/30 12:01:57;;;;;;;12.73;7.80;;;24.50;1.00;;;;;;5025192;28;20181;-74
2023/06/30 12:04:32;;;;;;;11.37;7.50;;;24.40;1.00;;;;;;5028025;28;20467;-75
2023/06/30 12:06:59;;;;;;;13.30;7.93;;;24.20;1.00;;;;;;5021322;28;20184;-72
2023/06/30 12:09:24;;;;;;;15.87;8.13;;;24.50;1.00;;;;;;5027791;28;20435;-72
2023/06/30 12:11:50;;;;;;;11.07;8.20;;;24.10;1.00;;;;;;5028114;28;21056;-74
2023/06/30 12:14:17;;;;;;;11.73;8.47;;;24.10;1.00;;;;;;5029790;28;20201;-73
2023/06/30 12:16:49;;;;;;;13.97;8.47;;;24.10;1.00;;;;;;5028007;28;20211;-73
2023/06/30 12:19:15;;;;;;;9.77;7.93;;;24.20;1.00;;;;;;5029641;28;20444;-74
2023/06/30 12:22:03;;;;;;;11.60;7.77;;;24.20;1.00;;;;;;5026901;28;20449;-73
2023/06/30 12:24:32;;;;;;;9.37;7.10;;;24.30;1.00;;;;;;5025584;28;20690;-75
2023/06/30 12:27:00;;;;;;;9.43;7.43;;;24.40;1.00;;;;;;5042875;28;20443;-74
2023/06/30 12:29:30;;;;;;;9.83;6.97;;;24.60;1.00;;;;;;5030035;28;20444;-74
2023/06/30 12:31:55;;;;;;;10.27;7.50;;;24.90;1.00;;;;;;5028205;28;20962;-74
2023/06/30 12:34:35;;;;;;;12.40;7.80;;;25.30;1.00;;;;;;5024282;28;20467;-72
2023/06/30 12:37:01;;;;;;;12.60;7.57;;;26.10;1.00;;;;;;5027107;28;20184;-75
2023/06/30 12:39:27;;;;;;;9.17;7.17;;;26.60;1.00;;;;;;5026793;28;20464;-75
2023/06/30 12:41:53;;;;;;;10.20;8.00;;;26.80;1.00;;;;;;5027401;28;20181;-73